Airfield :
LOGIN :

Register | Disclaimer

   EN    FR    IT 

 










Legend :    VFR   Marginal VFR   IFR   Intensive IFR   Very Intensive IFR
Visi :
Ceiling :
>= 8 km
>= 3000ft
5 to 8 km
1000 to 3000 ft
1500m to 5 km
500 to 1000 ft
800 to 1500m
200 to 500 ft
< 800m
< 200 ft
Symbols :   Thunderstorms  Fog  Heavy snow  Heavy precipitations  Wind > 20 kt
SIGMETs :     Misc.  Thunderstorms  Icing  Turbulence  Mountain Waves  Volcanic Ashes






- Airport Elevation : 242 ft
- IATA code : DUB


EIDW - Dublin

CURRENT METAR :
  • 021300Z 07006KT 030V100 6000 BR FEW007 BKN011 07/05 Q1029 BECMG 9999 BKN012

EXPIRED METARs :
  • 021230Z 08006KT 6000 BR FEW007 OVC010 07/05 Q1029 BECMG 9999 BKN012
  • 021200Z 10006KT 6000 BR FEW007 OVC010 06/05 Q1029 BECMG 9999 BKN012
  • 021130Z 11005KT 070V160 4000 BR FEW006 OVC012 06/05 Q1029 BECMG 9999 BKN012
  • 021100Z 07005KT 040V100 4000 BR FEW006 SCT009 OVC012 06/05 Q1029 BECMG 9999 BKN012
  • 021030Z 10004KT 060V210 4000 BR FEW006 SCT009 OVC012 05/05 Q1029 BECMG 9999 BKN012

TAF TAF EIDW
Valid from the 02 at 12:00 until the 03 at 12:00 UTC


021100Z 0212/0312 07006KT 8000 FEW006 BKN014
PROB30
TEMPO 0212/0222 4000 BR BKN008
TEMPO 0222/0309 3000 BR BKN005
PROB30
TEMPO 0301/0309 0300 FG BKN001
BECMG 0307/0309 BKN011



MET'MAP, your aeronautical weather chart ! - Copyright ORBIFLY December 2007 - Disclaimer

ORBIFLY MET'MAP TEAM :

Programming & Development : Alexandra Zaïnal
Concept & original design : Baudouin d'Aumeries
Assistance for programming : Marc-Olivier Méhu
Technical & hardware support : Manuel Goepfert

Contact : metmap@orbifly.com




SOURCES & CREDITS :

   NOAA